sensor_id;sensor_type;location;lat;lon;timestamp;P1;durP1;ratioP1;P2;durP2;ratioP2
6292;SDS011;3179;54.350;10.102;2023-02-10T00:00:32;28.20;;;13.97;;
6292;SDS011;3179;54.350;10.102;2023-02-10T00:02:59;29.63;;;13.17;;
6292;SDS011;3179;54.350;10.102;2023-02-10T00:05:25;25.43;;;11.73;;
6292;SDS011;3179;54.350;10.102;2023-02-10T00:07:54;24.43;;;11.23;;
6292;SDS011;3179;54.350;10.102;2023-02-10T00:10:21;27.00;;;12.37;;
6292;SDS011;3179;54.350;10.102;2023-02-10T00:12:48;32.43;;;12.17;;
6292;SDS011;3179;54.350;10.102;2023-02-10T00:15:14;38.60;;;12.23;;
6292;SDS011;3179;54.350;10.102;2023-02-10T00:17:41;28.43;;;12.53;;
6292;SDS011;3179;54.350;10.102;2023-02-10T00:20:08;27.90;;;11.90;;
6292;SDS011;3179;54.350;10.102;2023-02-10T00:22:36;29.63;;;11.67;;
6292;SDS011;3179;54.350;10.102;2023-02-10T00:25:04;34.50;;;11.57;;
6292;SDS011;3179;54.350;10.102;2023-02-10T00:27:31;37.37;;;12.10;;
6292;SDS011;3179;54.350;10.102;2023-02-10T00:29:58;29.53;;;11.20;;
6292;SDS011;3179;54.350;10.102;2023-02-10T00:32:24;33.67;;;10.63;;
6292;SDS011;3179;54.350;10.102;2023-02-10T00:34:51;22.50;;;10.40;;
6292;SDS011;3179;54.350;10.102;2023-02-10T00:37:18;30.67;;;9.83;;
6292;SDS011;3179;54.350;10.102;2023-02-10T00:39:45;28.13;;;9.67;;
6292;SDS011;3179;54.350;10.102;2023-02-10T00:42:13;28.33;;;10.23;;
6292;SDS011;3179;54.350;10.102;2023-02-10T00:44:40;32.67;;;9.67;;
6292;SDS011;3179;54.350;10.102;2023-02-10T00:47:07;29.77;;;12.27;;
6292;SDS011;3179;54.350;10.102;2023-02-10T00:49:33;27.80;;;10.87;;
6292;SDS011;3179;54.350;10.102;2023-02-10T00:52:00;25.70;;;9.37;;
6292;SDS011;3179;54.350;10.102;2023-02-10T00:54:27;19.07;;;8.60;;
6292;SDS011;3179;54.350;10.102;2023-02-10T00:56:53;24.17;;;8.97;;
6292;SDS011;3179;54.350;10.102;2023-02-10T00:59:22;24.73;;;8.63;;
6292;SDS011;3179;54.350;10.102;2023-02-10T01:01:48;26.93;;;10.83;;
6292;SDS011;3179;54.350;10.102;2023-02-10T01:04:15;30.73;;;9.77;;
6292;SDS011;3179;54.350;10.102;2023-02-10T01:06:42;24.67;;;9.53;;
6292;SDS011;3179;54.350;10.102;2023-02-10T01:09:09;25.47;;;9.77;;
6292;SDS011;3179;54.350;10.102;2023-02-10T01:11:36;22.97;;;9.40;;
6292;SDS011;3179;54.350;10.102;2023-02-10T01:14:04;26.33;;;9.97;;
6292;SDS011;3179;54.350;10.102;2023-02-10T01:16:32;22.20;;;9.90;;
6292;SDS011;3179;54.350;10.102;2023-02-10T01:18:59;16.03;;;7.90;;
6292;SDS011;3179;54.350;10.102;2023-02-10T01:21:26;27.07;;;9.63;;
6292;SDS011;3179;54.350;10.102;2023-02-10T01:23:53;25.80;;;9.10;;
6292;SDS011;3179;54.350;10.102;2023-02-10T01:26:19;22.87;;;8.07;;
6292;SDS011;3179;54.350;10.102;2023-02-10T01:28:46;24.67;;;9.07;;
6292;SDS011;3179;54.350;10.102;2023-02-10T01:31:14;20.13;;;8.80;;
6292;SDS011;3179;54.350;10.102;2023-02-10T01:33:44;23.50;;;9.37;;
6292;SDS011;3179;54.350;10.102;2023-02-10T01:36:11;27.17;;;8.67;;
6292;SDS011;3179;54.350;10.102;2023-02-10T01:38:39;22.43;;;8.00;;
6292;SDS011;3179;54.350;10.102;2023-02-10T01:41:07;21.30;;;8.03;;
6292;SDS011;3179;54.350;10.102;2023-02-10T01:46:19;33.93;;;7.80;;
6292;SDS011;3179;54.350;10.102;2023-02-10T01:48:47;20.93;;;8.10;;
6292;SDS011;3179;54.350;10.102;2023-02-10T01:51:14;28.50;;;8.27;;
6292;SDS011;3179;54.350;10.102;2023-02-10T01:53:44;23.93;;;7.40;;
6292;SDS011;3179;54.350;10.102;2023-02-10T01:56:11;24.50;;;6.20;;
6292;SDS011;3179;54.350;10.102;2023-02-10T01:58:40;23.73;;;7.00;;
6292;SDS011;3179;54.350;10.102;2023-02-10T02:01:09;20.67;;;5.40;;
6292;SDS011;3179;54.350;10.102;2023-02-10T02:03:36;21.63;;;7.00;;
6292;SDS011;3179;54.350;10.102;2023-02-10T02:06:07;20.23;;;7.07;;
6292;SDS011;3179;54.350;10.102;2023-02-10T02:08:34;21.53;;;5.57;;
6292;SDS011;3179;54.350;10.102;2023-02-10T02:11:06;14.90;;;5.47;;
6292;SDS011;3179;54.350;10.102;2023-02-10T02:16:38;17.30;;;5.77;;
6292;SDS011;3179;54.350;10.102;2023-02-10T02:19:16;21.40;;;5.60;;
6292;SDS011;3179;54.350;10.102;2023-02-10T02:22:21;21.27;;;5.80;;
6292;SDS011;3179;54.350;10.102;2023-02-10T02:25:09;17.60;;;5.13;;
6292;SDS011;3179;54.350;10.102;2023-02-10T02:27:54;20.30;;;5.37;;
6292;SDS011;3179;54.350;10.102;2023-02-10T02:30:54;21.50;;;5.83;;
6292;SDS011;3179;54.350;10.102;2023-02-10T02:33:39;18.30;;;4.70;;
6292;SDS011;3179;54.350;10.102;2023-02-10T02:36:10;19.77;;;5.80;;
6292;SDS011;3179;54.350;10.102;2023-02-10T02:38:39;17.90;;;4.43;;
6292;SDS011;3179;54.350;10.102;2023-02-10T02:41:07;21.70;;;5.70;;
6292;SDS011;3179;54.350;10.102;2023-02-10T02:43:34;20.17;;;4.90;;
6292;SDS011;3179;54.350;10.102;2023-02-10T02:46:04;21.90;;;5.40;;
6292;SDS011;3179;54.350;10.102;2023-02-10T02:48:49;22.10;;;5.33;;
6292;SDS011;3179;54.350;10.102;2023-02-10T02:51:25;19.83;;;4.37;;
6292;SDS011;3179;54.350;10.102;2023-02-10T02:54:09;15.60;;;4.57;;
6292;SDS011;3179;54.350;10.102;2023-02-10T02:56:42;18.57;;;4.70;;
6292;SDS011;3179;54.350;10.102;2023-02-10T02:59:14;23.70;;;5.37;;
6292;SDS011;3179;54.350;10.102;2023-02-10T03:01:47;22.77;;;4.50;;
6292;SDS011;3179;54.350;10.102;2023-02-10T03:04:21;18.00;;;4.47;;
6292;SDS011;3179;54.350;10.102;2023-02-10T03:06:49;11.60;;;4.07;;
6292;SDS011;3179;54.350;10.102;2023-02-10T03:09:16;13.53;;;4.20;;
6292;SDS011;3179;54.350;10.102;2023-02-10T03:11:43;16.50;;;4.27;;
6292;SDS011;3179;54.350;10.102;2023-02-10T03:14:09;19.03;;;3.80;;
6292;SDS011;3179;54.350;10.102;2023-02-10T03:16:36;26.97;;;4.43;;
6292;SDS011;3179;54.350;10.102;2023-02-10T03:19:03;20.80;;;4.30;;
6292;SDS011;3179;54.350;10.102;2023-02-10T03:21:31;17.77;;;4.00;;
6292;SDS011;3179;54.350;10.102;2023-02-10T03:23:58;22.00;;;4.30;;
6292;SDS011;3179;54.350;10.102;2023-02-10T03:26:25;15.63;;;3.97;;
6292;SDS011;3179;54.350;10.102;2023-02-10T03:28:53;18.37;;;4.50;;
6292;SDS011;3179;54.350;10.102;2023-02-10T03:31:19;14.17;;;4.20;;
6292;SDS011;3179;54.350;10.102;2023-02-10T03:33:46;17.83;;;3.87;;
6292;SDS011;3179;54.350;10.102;2023-02-10T03:36:13;16.77;;;3.63;;
6292;SDS011;3179;54.350;10.102;2023-02-10T03:38:41;10.97;;;4.30;;
6292;SDS011;3179;54.350;10.102;2023-02-10T03:41:08;14.73;;;3.97;;
6292;SDS011;3179;54.350;10.102;2023-02-10T03:43:35;24.60;;;4.20;;
6292;SDS011;3179;54.350;10.102;2023-02-10T03:46:02;18.00;;;3.70;;
6292;SDS011;3179;54.350;10.102;2023-02-10T03:48:29;17.30;;;3.77;;
6292;SDS011;3179;54.350;10.102;2023-02-10T03:50:57;27.60;;;4.17;;
6292;SDS011;3179;54.350;10.102;2023-02-10T03:53:24;22.23;;;4.30;;
6292;SDS011;3179;54.350;10.102;2023-02-10T03:55:52;14.00;;;4.03;;
6292;SDS011;3179;54.350;10.102;2023-02-10T03:58:19;21.13;;;2.80;;
6292;SDS011;3179;54.350;10.102;2023-02-10T04:00:46;17.47;;;3.47;;
6292;SDS011;3179;54.350;10.102;2023-02-10T04:03:13;25.90;;;4.87;;
6292;SDS011;3179;54.350;10.102;2023-02-10T04:05:40;20.30;;;3.83;;
6292;SDS011;3179;54.350;10.102;2023-02-10T04:08:08;14.70;;;3.00;;
6292;SDS011;3179;54.350;10.102;2023-02-10T04:10:34;13.33;;;3.30;;
6292;SDS011;3179;54.350;10.102;2023-02-10T04:13:03;18.07;;;3.90;;
6292;SDS011;3179;54.350;10.102;2023-02-10T04:15:29;13.40;;;3.10;;
6292;SDS011;3179;54.350;10.102;2023-02-10T04:17:56;15.10;;;4.23;;
6292;SDS011;3179;54.350;10.102;2023-02-10T04:20:23;11.40;;;3.33;;
6292;SDS011;3179;54.350;10.102;2023-02-10T04:22:50;13.77;;;3.33;;
6292;SDS011;3179;54.350;10.102;2023-02-10T04:25:17;18.30;;;3.67;;
6292;SDS011;3179;54.350;10.102;2023-02-10T04:27:44;24.33;;;4.00;;
6292;SDS011;3179;54.350;10.102;2023-02-10T04:30:12;12.97;;;3.40;;
6292;SDS011;3179;54.350;10.102;2023-02-10T04:32:39;19.03;;;3.37;;
6292;SDS011;3179;54.350;10.102;2023-02-10T04:35:06;33.10;;;4.00;;
6292;SDS011;3179;54.350;10.102;2023-02-10T04:37:33;20.53;;;4.60;;
6292;SDS011;3179;54.350;10.102;2023-02-10T04:39:59;16.70;;;4.57;;
6292;SDS011;3179;54.350;10.102;2023-02-10T04:42:26;16.07;;;4.03;;
6292;SDS011;3179;54.350;10.102;2023-02-10T04:44:55;18.67;;;3.97;;
6292;SDS011;3179;54.350;10.102;2023-02-10T04:47:24;17.17;;;4.43;;
6292;SDS011;3179;54.350;10.102;2023-02-10T04:49:52;16.63;;;5.07;;
6292;SDS011;3179;54.350;10.102;2023-02-10T04:52:19;22.90;;;5.37;;
6292;SDS011;3179;54.350;10.102;2023-02-10T04:54:46;23.53;;;5.13;;
6292;SDS011;3179;54.350;10.102;2023-02-10T04:57:12;20.10;;;4.67;;
6292;SDS011;3179;54.350;10.102;2023-02-10T04:59:39;15.40;;;4.70;;
6292;SDS011;3179;54.350;10.102;2023-02-10T05:02:06;29.10;;;5.03;;
6292;SDS011;3179;54.350;10.102;2023-02-10T05:04:34;22.53;;;4.63;;
6292;SDS011;3179;54.350;10.102;2023-02-10T05:07:01;23.97;;;5.50;;
6292;SDS011;3179;54.350;10.102;2023-02-10T05:09:27;18.43;;;5.40;;
6292;SDS011;3179;54.350;10.102;2023-02-10T05:11:54;22.17;;;6.00;;
6292;SDS011;3179;54.350;10.102;2023-02-10T05:14:21;18.27;;;4.67;;
6292;SDS011;3179;54.350;10.102;2023-02-10T05:16:48;23.90;;;5.80;;
6292;SDS011;3179;54.350;10.102;2023-02-10T05:19:14;26.30;;;5.67;;
6292;SDS011;3179;54.350;10.102;2023-02-10T05:21:42;26.30;;;6.00;;
6292;SDS011;3179;54.350;10.102;2023-02-10T05:24:09;20.77;;;4.80;;
6292;SDS011;3179;54.350;10.102;2023-02-10T05:26:36;30.23;;;6.73;;
6292;SDS011;3179;54.350;10.102;2023-02-10T05:29:03;26.53;;;6.23;;
6292;SDS011;3179;54.350;10.102;2023-02-10T05:31:29;24.13;;;6.97;;
6292;SDS011;3179;54.350;10.102;2023-02-10T05:33:56;22.37;;;6.27;;
6292;SDS011;3179;54.350;10.102;2023-02-10T05:36:23;18.03;;;5.80;;
6292;SDS011;3179;54.350;10.102;2023-02-10T05:38:51;22.90;;;7.23;;
6292;SDS011;3179;54.350;10.102;2023-02-10T05:41:35;21.33;;;5.63;;
6292;SDS011;3179;54.350;10.102;2023-02-10T05:44:02;13.97;;;6.10;;
6292;SDS011;3179;54.350;10.102;2023-02-10T05:46:29;26.17;;;7.60;;
6292;SDS011;3179;54.350;10.102;2023-02-10T05:48:55;37.63;;;8.67;;
6292;SDS011;3179;54.350;10.102;2023-02-10T05:51:22;23.33;;;6.00;;
6292;SDS011;3179;54.350;10.102;2023-02-10T05:53:50;21.50;;;7.00;;
6292;SDS011;3179;54.350;10.102;2023-02-10T05:56:18;19.10;;;6.47;;
6292;SDS011;3179;54.350;10.102;2023-02-10T05:58:45;24.30;;;7.10;;
6292;SDS011;3179;54.350;10.102;2023-02-10T06:01:12;18.67;;;6.13;;
6292;SDS011;3179;54.350;10.102;2023-02-10T06:03:38;19.40;;;6.20;;
6292;SDS011;3179;54.350;10.102;2023-02-10T06:06:05;29.33;;;8.17;;
6292;SDS011;3179;54.350;10.102;2023-02-10T06:08:32;18.50;;;6.67;;
6292;SDS011;3179;54.350;10.102;2023-02-10T06:11:00;14.10;;;6.03;;
6292;SDS011;3179;54.350;10.102;2023-02-10T06:13:27;28.00;;;7.90;;
6292;SDS011;3179;54.350;10.102;2023-02-10T06:15:54;22.63;;;7.73;;
6292;SDS011;3179;54.350;10.102;2023-02-10T06:18:20;28.63;;;7.93;;
6292;SDS011;3179;54.350;10.102;2023-02-10T06:20:47;18.90;;;7.93;;
6292;SDS011;3179;54.350;10.102;2023-02-10T06:23:16;26.53;;;7.53;;
6292;SDS011;3179;54.350;10.102;2023-02-10T06:25:44;30.37;;;8.00;;
6292;SDS011;3179;54.350;10.102;2023-02-10T06:28:12;17.73;;;6.07;;
6292;SDS011;3179;54.350;10.102;2023-02-10T06:30:39;20.43;;;6.23;;
6292;SDS011;3179;54.350;10.102;2023-02-10T06:33:06;18.90;;;6.60;;
6292;SDS011;3179;54.350;10.102;2023-02-10T06:35:33;20.17;;;6.27;;
6292;SDS011;3179;54.350;10.102;2023-02-10T06:38:00;19.77;;;6.67;;
6292;SDS011;3179;54.350;10.102;2023-02-10T06:40:26;21.00;;;5.77;;
6292;SDS011;3179;54.350;10.102;2023-02-10T06:42:53;28.60;;;6.60;;
6292;SDS011;3179;54.350;10.102;2023-02-10T06:45:21;26.30;;;6.03;;
6292;SDS011;3179;54.350;10.102;2023-02-10T06:47:48;27.33;;;6.80;;
6292;SDS011;3179;54.350;10.102;2023-02-10T06:50:15;17.90;;;5.60;;
6292;SDS011;3179;54.350;10.102;2023-02-10T06:52:42;33.07;;;7.10;;
6292;SDS011;3179;54.350;10.102;2023-02-10T06:55:09;28.97;;;7.67;;
6292;SDS011;3179;54.350;10.102;2023-02-10T06:57:36;15.50;;;5.17;;
6292;SDS011;3179;54.350;10.102;2023-02-10T07:00:03;33.03;;;5.60;;
6292;SDS011;3179;54.350;10.102;2023-02-10T07:02:33;22.37;;;5.20;;
6292;SDS011;3179;54.350;10.102;2023-02-10T07:05:00;23.73;;;6.07;;
6292;SDS011;3179;54.350;10.102;2023-02-10T07:07:29;21.57;;;5.70;;
6292;SDS011;3179;54.350;10.102;2023-02-10T07:09:56;16.20;;;4.70;;
6292;SDS011;3179;54.350;10.102;2023-02-10T07:12:23;31.27;;;6.47;;
6292;SDS011;3179;54.350;10.102;2023-02-10T07:14:50;18.90;;;6.43;;
6292;SDS011;3179;54.350;10.102;2023-02-10T07:17:17;28.53;;;7.10;;
6292;SDS011;3179;54.350;10.102;2023-02-10T07:19:45;24.07;;;6.77;;
6292;SDS011;3179;54.350;10.102;2023-02-10T07:22:12;25.63;;;6.97;;
6292;SDS011;3179;54.350;10.102;2023-02-10T07:24:39;26.43;;;9.00;;
6292;SDS011;3179;54.350;10.102;2023-02-10T07:27:05;27.40;;;7.97;;
6292;SDS011;3179;54.350;10.102;2023-02-10T07:29:32;22.13;;;7.43;;
6292;SDS011;3179;54.350;10.102;2023-02-10T07:31:59;24.33;;;7.70;;
6292;SDS011;3179;54.350;10.102;2023-02-10T07:34:26;27.50;;;7.00;;
6292;SDS011;3179;54.350;10.102;2023-02-10T07:36:56;29.77;;;7.40;;
6292;SDS011;3179;54.350;10.102;2023-02-10T07:39:23;25.00;;;6.97;;
6292;SDS011;3179;54.350;10.102;2023-02-10T07:41:50;20.17;;;4.93;;
6292;SDS011;3179;54.350;10.102;2023-02-10T07:44:18;25.17;;;6.80;;
6292;SDS011;3179;54.350;10.102;2023-02-10T07:46:45;26.27;;;5.70;;
6292;SDS011;3179;54.350;10.102;2023-02-10T07:49:12;21.47;;;5.73;;
6292;SDS011;3179;54.350;10.102;2023-02-10T07:51:40;22.90;;;5.23;;
6292;SDS011;3179;54.350;10.102;2023-02-10T07:54:08;15.00;;;5.33;;
6292;SDS011;3179;54.350;10.102;2023-02-10T07:56:35;26.20;;;6.87;;
6292;SDS011;3179;54.350;10.102;2023-02-10T07:59:02;20.10;;;6.07;;
6292;SDS011;3179;54.350;10.102;2023-02-10T08:01:29;21.40;;;5.43;;
6292;SDS011;3179;54.350;10.102;2023-02-10T08:03:56;22.27;;;6.33;;
6292;SDS011;3179;54.350;10.102;2023-02-10T08:06:25;27.63;;;6.80;;
6292;SDS011;3179;54.350;10.102;2023-02-10T08:08:52;27.40;;;6.10;;
6292;SDS011;3179;54.350;10.102;2023-02-10T08:11:20;22.50;;;6.07;;
6292;SDS011;3179;54.350;10.102;2023-02-10T08:13:46;19.60;;;5.83;;
6292;SDS011;3179;54.350;10.102;2023-02-10T08:16:13;20.07;;;4.93;;
6292;SDS011;3179;54.350;10.102;2023-02-10T08:18:40;20.93;;;5.30;;
6292;SDS011;3179;54.350;10.102;2023-02-10T08:21:08;30.10;;;6.17;;
6292;SDS011;3179;54.350;10.102;2023-02-10T08:23:35;27.53;;;5.73;;
6292;SDS011;3179;54.350;10.102;2023-02-10T08:26:03;20.47;;;5.63;;
6292;SDS011;3179;54.350;10.102;2023-02-10T08:28:32;18.40;;;4.70;;
6292;SDS011;3179;54.350;10.102;2023-02-10T08:31:00;19.20;;;4.87;;
6292;SDS011;3179;54.350;10.102;2023-02-10T08:33:27;20.30;;;5.00;;
6292;SDS011;3179;54.350;10.102;2023-02-10T08:35:55;19.90;;;5.80;;
6292;SDS011;3179;54.350;10.102;2023-02-10T08:38:22;30.47;;;6.60;;
6292;SDS011;3179;54.350;10.102;2023-02-10T08:40:53;28.83;;;5.57;;
6292;SDS011;3179;54.350;10.102;2023-02-10T08:43:21;31.43;;;6.60;;
6292;SDS011;3179;54.350;10.102;2023-02-10T08:45:49;17.37;;;5.30;;
6292;SDS011;3179;54.350;10.102;2023-02-10T08:48:16;16.10;;;4.63;;
6292;SDS011;3179;54.350;10.102;2023-02-10T08:50:43;26.37;;;5.60;;
6292;SDS011;3179;54.350;10.102;2023-02-10T08:53:10;23.97;;;5.93;;
6292;SDS011;3179;54.350;10.102;2023-02-10T08:55:36;14.67;;;5.20;;
6292;SDS011;3179;54.350;10.102;2023-02-10T08:58:03;30.33;;;5.70;;
6292;SDS011;3179;54.350;10.102;2023-02-10T09:00:30;16.60;;;5.10;;
6292;SDS011;3179;54.350;10.102;2023-02-10T09:02:59;17.10;;;5.23;;
6292;SDS011;3179;54.350;10.102;2023-02-10T09:05:26;22.93;;;5.80;;
6292;SDS011;3179;54.350;10.102;2023-02-10T09:07:53;21.67;;;5.73;;
6292;SDS011;3179;54.350;10.102;2023-02-10T09:10:19;16.77;;;5.93;;
6292;SDS011;3179;54.350;10.102;2023-02-10T09:12:46;26.43;;;6.07;;
6292;SDS011;3179;54.350;10.102;2023-02-10T09:15:14;22.77;;;7.93;;
6292;SDS011;3179;54.350;10.102;2023-02-10T09:17:40;20.90;;;7.17;;
6292;SDS011;3179;54.350;10.102;2023-02-10T09:20:09;34.03;;;7.30;;
6292;SDS011;3179;54.350;10.102;2023-02-10T09:22:36;20.57;;;7.53;;
6292;SDS011;3179;54.350;10.102;2023-02-10T09:25:03;28.90;;;8.30;;
6292;SDS011;3179;54.350;10.102;2023-02-10T09:27:30;33.57;;;9.67;;
6292;SDS011;3179;54.350;10.102;2023-02-10T09:29:57;25.90;;;8.80;;
6292;SDS011;3179;54.350;10.102;2023-02-10T09:32:24;28.07;;;8.10;;
6292;SDS011;3179;54.350;10.102;2023-02-10T09:34:51;37.47;;;10.13;;
6292;SDS011;3179;54.350;10.102;2023-02-10T09:37:19;27.40;;;8.83;;
6292;SDS011;3179;54.350;10.102;2023-02-10T09:39:46;30.83;;;10.20;;
6292;SDS011;3179;54.350;10.102;2023-02-10T09:42:14;33.50;;;10.20;;
6292;SDS011;3179;54.350;10.102;2023-02-10T09:44:48;25.20;;;8.63;;
6292;SDS011;3179;54.350;10.102;2023-02-10T09:47:26;26.67;;;9.70;;
6292;SDS011;3179;54.350;10.102;2023-02-10T09:50:20;27.03;;;9.37;;
6292;SDS011;3179;54.350;10.102;2023-02-10T09:53:06;18.67;;;8.53;;
6292;SDS011;3179;54.350;10.102;2023-02-10T09:55:38;21.00;;;8.87;;
6292;SDS011;3179;54.350;10.102;2023-02-10T09:58:12;19.43;;;8.23;;
6292;SDS011;3179;54.350;10.102;2023-02-10T10:00:45;21.50;;;8.67;;
6292;SDS011;3179;54.350;10.102;2023-02-10T10:03:13;34.83;;;10.90;;
6292;SDS011;3179;54.350;10.102;2023-02-10T10:05:45;25.80;;;9.30;;
6292;SDS011;3179;54.350;10.102;2023-02-10T10:08:21;25.30;;;9.30;;
6292;SDS011;3179;54.350;10.102;2023-02-10T10:10:52;31.20;;;10.37;;
6292;SDS011;3179;54.350;10.102;2023-02-10T10:13:23;41.73;;;10.80;;
6292;SDS011;3179;54.350;10.102;2023-02-10T10:15:56;26.63;;;9.67;;
6292;SDS011;3179;54.350;10.102;2023-02-10T10:18:38;24.83;;;10.30;;
6292;SDS011;3179;54.350;10.102;2023-02-10T10:21:14;34.60;;;9.70;;
6292;SDS011;3179;54.350;10.102;2023-02-10T10:23:52;22.93;;;9.13;;
6292;SDS011;3179;54.350;10.102;2023-02-10T10:26:37;27.37;;;8.50;;
6292;SDS011;3179;54.350;10.102;2023-02-10T10:29:20;38.80;;;11.20;;
6292;SDS011;3179;54.350;10.102;2023-02-10T10:31:54;30.43;;;9.20;;
6292;SDS011;3179;54.350;10.102;2023-02-10T10:34:31;23.90;;;8.93;;
6292;SDS011;3179;54.350;10.102;2023-02-10T10:37:00;24.10;;;8.50;;
6292;SDS011;3179;54.350;10.102;2023-02-10T10:39:33;23.70;;;8.20;;
6292;SDS011;3179;54.350;10.102;2023-02-10T10:42:05;25.93;;;9.30;;
6292;SDS011;3179;54.350;10.102;2023-02-10T10:44:43;24.03;;;8.93;;
6292;SDS011;3179;54.350;10.102;2023-02-10T10:47:13;24.47;;;9.57;;
6292;SDS011;3179;54.350;10.102;2023-02-10T10:49:44;19.13;;;7.10;;
6292;SDS011;3179;54.350;10.102;2023-02-10T10:52:17;16.53;;;6.70;;
6292;SDS011;3179;54.350;10.102;2023-02-10T10:54:53;17.50;;;6.03;;
6292;SDS011;3179;54.350;10.102;2023-02-10T10:57:21;21.63;;;6.27;;
6292;SDS011;3179;54.350;10.102;2023-02-10T10:59:51;23.67;;;6.73;;
6292;SDS011;3179;54.350;10.102;2023-02-10T11:02:22;26.40;;;5.83;;
6292;SDS011;3179;54.350;10.102;2023-02-10T11:04:59;16.00;;;4.90;;
6292;SDS011;3179;54.350;10.102;2023-02-10T11:07:27;17.80;;;5.30;;
6292;SDS011;3179;54.350;10.102;2023-02-10T11:09:58;16.33;;;5.10;;
6292;SDS011;3179;54.350;10.102;2023-02-10T11:12:27;18.83;;;5.03;;
6292;SDS011;3179;54.350;10.102;2023-02-10T11:14:57;20.00;;;5.50;;
6292;SDS011;3179;54.350;10.102;2023-02-10T11:17:28;19.10;;;4.73;;
6292;SDS011;3179;54.350;10.102;2023-02-10T11:20:00;19.23;;;4.87;;
6292;SDS011;3179;54.350;10.102;2023-02-10T11:22:29;25.80;;;6.57;;
6292;SDS011;3179;54.350;10.102;2023-02-10T11:24:56;24.97;;;5.87;;
6292;SDS011;3179;54.350;10.102;2023-02-10T11:27:26;24.53;;;6.57;;
6292;SDS011;3179;54.350;10.102;2023-02-10T11:29:53;15.53;;;5.40;;
6292;SDS011;3179;54.350;10.102;2023-02-10T11:32:23;10.87;;;4.57;;
6292;SDS011;3179;54.350;10.102;2023-02-10T11:34:51;11.80;;;4.70;;
6292;SDS011;3179;54.350;10.102;2023-02-10T11:37:21;14.23;;;4.97;;
6292;SDS011;3179;54.350;10.102;2023-02-10T11:39:52;15.10;;;4.70;;
6292;SDS011;3179;54.350;10.102;2023-02-10T11:42:21;13.47;;;5.17;;
6292;SDS011;3179;54.350;10.102;2023-02-10T11:44:52;32.20;;;5.10;;
6292;SDS011;3179;54.350;10.102;2023-02-10T11:47:20;16.37;;;4.63;;
6292;SDS011;3179;54.350;10.102;2023-02-10T11:49:48;14.70;;;5.13;;
6292;SDS011;3179;54.350;10.102;2023-02-10T11:52:15;23.83;;;5.47;;
6292;SDS011;3179;54.350;10.102;2023-02-10T11:54:44;20.63;;;5.17;;
6292;SDS011;3179;54.350;10.102;2023-02-10T11:57:16;18.60;;;5.67;;
6292;SDS011;3179;54.350;10.102;2023-02-10T12:00:10;15.93;;;4.90;;
6292;SDS011;3179;54.350;10.102;2023-02-10T12:02:48;16.80;;;5.03;;
6292;SDS011;3179;54.350;10.102;2023-02-10T12:05:36;17.03;;;4.10;;
6292;SDS011;3179;54.350;10.102;2023-02-10T12:08:13;23.10;;;6.00;;
6292;SDS011;3179;54.350;10.102;2023-02-10T12:10:47;14.17;;;5.67;;
6292;SDS011;3179;54.350;10.102;2023-02-10T12:13:28;12.33;;;4.70;;
6292;SDS011;3179;54.350;10.102;2023-02-10T12:16:06;13.23;;;4.50;;
6292;SDS011;3179;54.350;10.102;2023-02-10T12:18:47;16.53;;;5.03;;
6292;SDS011;3179;54.350;10.102;2023-02-10T12:21:39;15.93;;;5.10;;
6292;SDS011;3179;54.350;10.102;2023-02-10T12:24:19;13.20;;;5.00;;
6292;SDS011;3179;54.350;10.102;2023-02-10T12:26:57;11.87;;;4.70;;
6292;SDS011;3179;54.350;10.102;2023-02-10T12:29:33;9.87;;;3.40;;
6292;SDS011;3179;54.350;10.102;2023-02-10T12:32:12;10.00;;;4.27;;
6292;SDS011;3179;54.350;10.102;2023-02-10T12:34:53;18.33;;;5.20;;
6292;SDS011;3179;54.350;10.102;2023-02-10T12:37:39;14.10;;;4.07;;
6292;SDS011;3179;54.350;10.102;2023-02-10T12:40:23;17.70;;;4.13;;
6292;SDS011;3179;54.350;10.102;2023-02-10T12:43:00;17.87;;;5.10;;
6292;SDS011;3179;54.350;10.102;2023-02-10T12:45:35;12.17;;;4.10;;
6292;SDS011;3179;54.350;10.102;2023-02-10T12:48:13;17.17;;;4.40;;
6292;SDS011;3179;54.350;10.102;2023-02-10T12:50:51;23.80;;;3.80;;
6292;SDS011;3179;54.350;10.102;2023-02-10T12:53:32;24.43;;;4.30;;
6292;SDS011;3179;54.350;10.102;2023-02-10T12:56:03;15.23;;;4.53;;
6292;SDS011;3179;54.350;10.102;2023-02-10T12:58:38;18.43;;;5.00;;
6292;SDS011;3179;54.350;10.102;2023-02-10T13:01:10;15.87;;;4.77;;
6292;SDS011;3179;54.350;10.102;2023-02-10T13:03:42;20.20;;;4.47;;
6292;SDS011;3179;54.350;10.102;2023-02-10T13:06:17;12.67;;;4.07;;
6292;SDS011;3179;54.350;10.102;2023-02-10T13:08:50;15.53;;;4.40;;
6292;SDS011;3179;54.350;10.102;2023-02-10T13:11:21;18.00;;;4.90;;
6292;SDS011;3179;54.350;10.102;2023-02-10T13:13:55;18.73;;;4.67;;
6292;SDS011;3179;54.350;10.102;2023-02-10T13:16:28;12.97;;;4.30;;
6292;SDS011;3179;54.350;10.102;2023-02-10T13:18:58;14.60;;;5.53;;
6292;SDS011;3179;54.350;10.102;2023-02-10T13:21:34;26.03;;;5.70;;
6292;SDS011;3179;54.350;10.102;2023-02-10T13:24:08;20.90;;;5.00;;
6292;SDS011;3179;54.350;10.102;2023-02-10T13:26:44;24.07;;;5.67;;
6292;SDS011;3179;54.350;10.102;2023-02-10T13:29:17;14.73;;;4.70;;
6292;SDS011;3179;54.350;10.102;2023-02-10T13:31:58;17.33;;;5.60;;
6292;SDS011;3179;54.350;10.102;2023-02-10T13:34:43;20.47;;;5.77;;
6292;SDS011;3179;54.350;10.102;2023-02-10T13:37:12;18.83;;;5.77;;
6292;SDS011;3179;54.350;10.102;2023-02-10T13:39:48;18.43;;;5.33;;
6292;SDS011;3179;54.350;10.102;2023-02-10T13:42:18;28.33;;;6.57;;
6292;SDS011;3179;54.350;10.102;2023-02-10T13:44:56;15.67;;;5.97;;
6292;SDS011;3179;54.350;10.102;2023-02-10T13:47:28;13.43;;;4.87;;
6292;SDS011;3179;54.350;10.102;2023-02-10T13:50:00;17.20;;;5.10;;
6292;SDS011;3179;54.350;10.102;2023-02-10T13:52:29;21.30;;;5.80;;
6292;SDS011;3179;54.350;10.102;2023-02-10T13:55:00;15.17;;;5.60;;
6292;SDS011;3179;54.350;10.102;2023-02-10T13:57:30;12.50;;;5.23;;
6292;SDS011;3179;54.350;10.102;2023-02-10T14:00:05;14.63;;;5.33;;
6292;SDS011;3179;54.350;10.102;2023-02-10T14:02:39;16.03;;;5.43;;
6292;SDS011;3179;54.350;10.102;2023-02-10T14:05:20;20.00;;;6.10;;
6292;SDS011;3179;54.350;10.102;2023-02-10T14:07:48;21.13;;;6.13;;
6292;SDS011;3179;54.350;10.102;2023-02-10T14:10:26;14.93;;;5.20;;
6292;SDS011;3179;54.350;10.102;2023-02-10T14:12:56;12.73;;;6.00;;
6292;SDS011;3179;54.350;10.102;2023-02-10T14:15:25;23.90;;;5.70;;
6292;SDS011;3179;54.350;10.102;2023-02-10T14:17:59;20.83;;;6.40;;
6292;SDS011;3179;54.350;10.102;2023-02-10T14:20:30;17.90;;;7.10;;
6292;SDS011;3179;54.350;10.102;2023-02-10T14:23:00;19.10;;;5.60;;
6292;SDS011;3179;54.350;10.102;2023-02-10T14:25:30;21.17;;;6.83;;
6292;SDS011;3179;54.350;10.102;2023-02-10T14:28:00;18.03;;;6.47;;
6292;SDS011;3179;54.350;10.102;2023-02-10T14:30:31;22.47;;;5.87;;
6292;SDS011;3179;54.350;10.102;2023-02-10T14:33:06;12.40;;;5.57;;
6292;SDS011;3179;54.350;10.102;2023-02-10T14:35:47;15.27;;;6.20;;
6292;SDS011;3179;54.350;10.102;2023-02-10T14:38:16;31.17;;;7.00;;
6292;SDS011;3179;54.350;10.102;2023-02-10T14:40:46;15.60;;;5.20;;
6292;SDS011;3179;54.350;10.102;2023-02-10T14:43:14;27.50;;;7.60;;
6292;SDS011;3179;54.350;10.102;2023-02-10T14:45:47;21.93;;;7.03;;
6292;SDS011;3179;54.350;10.102;2023-02-10T14:48:15;17.77;;;5.50;;
6292;SDS011;3179;54.350;10.102;2023-02-10T14:50:55;21.87;;;5.60;;
6292;SDS011;3179;54.350;10.102;2023-02-10T14:53:32;17.87;;;5.30;;
6292;SDS011;3179;54.350;10.102;2023-02-10T14:56:02;21.07;;;5.97;;
6292;SDS011;3179;54.350;10.102;2023-02-10T14:58:30;19.13;;;5.93;;
6292;SDS011;3179;54.350;10.102;2023-02-10T15:01:06;18.73;;;5.53;;
6292;SDS011;3179;54.350;10.102;2023-02-10T15:03:40;15.57;;;5.00;;
6292;SDS011;3179;54.350;10.102;2023-02-10T15:06:08;17.30;;;5.53;;
6292;SDS011;3179;54.350;10.102;2023-02-10T15:08:39;20.10;;;5.03;;